Brooklyn, IN (46111)

09:47 AM EDT del 01 Ottobre 2016 (GMT -0400)
Main St. | | Change Station

Alt. 673 ft 39.54 °N, 86.37 °W | Updated 0 second ago

Fog
Nebbia
52.8 °F
Sembra 52.8 °F
N
1.0
Vento Variabile Vento da ESE

Oggi
Massima -- | Minima -- °F
--% Possibilità di precip.
Ieri
Massima -- | Minima -- °F
Precip. -- in
Pressione 30.02 in
Visibilità 0.2 miglia
Nuvole
Punto di rugiada 51 °F
Umidità 96%
Piovosità 0.00 in
Spessore del manto nevoso Non disponibile.
7:42 AM 7:27 PM
Luna nuova, 0% visible
SPECI KIND 011303Z 15003KT 1/4SM R05L/1600V3500FT FG VV002 11/11 A3002 RMK AO2 T01110111 $
Pressione 30.02 in
Visibilità 0.2 miglia
Nuvole
Punto di rugiada 51 °F
Umidità 96%
Piovosità 0.00 in
Spessore del manto nevoso Non disponibile.
7:42 AM 7:27 PM
Luna nuova, 0% visible
SPECI KIND 011303Z 15003KT 1/4SM R05L/1600V3500FT FG VV002 11/11 A3002 RMK AO2 T01110111 $

10-Day Weather Forecast

Almanac

Astronomia

Oct. 01, 2016 Alba Tramonto
Ora attuale
Crepuscolo civile
Crepuscolo nautico
Crepuscolo astronomico
Luna
Estensione della luce visibile
Lunghezza del giorno
Tomorrow will be .
, % of the Moon is Illuminated

Gli estremi di oggi

State Highs State Lows

Community

WunderPhotos

Upload Photos

1,942,931 foto caricate!

WunderBlog® & News

Nearby

Qualità dell'aria

  Qualità dell'aria Indice AQ Inquinante
Not available.

Profondità neve

Stazione Profondità Altitudine

Attività sismica

Città  Distanza Mag. Data & Ora
Minimo Magnitudo Mostrato è 2.5.

Temperature delle acque costiere

Località Temperatura

Stations

Stazioni meteo nelle vicinanze

Ubicazione della stazione Temp. Raffreddamento del vento Punto di rugiada Umidità Vento Precip. Alt. Aggiornato Tipo
                   

Watches & Warnings

There are currently no watches in effect.